Time;durP1;ratioP1;P1;durP2;ratioP2;P2;SDS_P1;SDS_P2;PMS_P1;PMS_P2;Temp;Humidity;BMP_temperature;BMP_pressure;BME280_temperature;BME280_humidity;BME280_pressure;Samples;Min_cycle;Max_cycle;Signal;HPM_P1;HPM_P2
2023/07/19 00:01:26;;;;;;;6.60;6.40;;;20.70;99.90;;;;;;5023652;28;20578;-68
2023/07/19 00:03:52;;;;;;;6.63;6.43;;;20.70;99.90;;;;;;5024308;28;20194;-67
2023/07/19 00:06:19;;;;;;;6.85;6.65;;;20.70;99.90;;;;;;5022816;28;20197;-67
2023/07/19 00:08:46;;;;;;;6.70;6.50;;;20.70;99.90;;;;;;5023897;28;20206;-68
2023/07/19 00:11:13;;;;;;;6.90;6.70;;;20.70;99.90;;;;;;5021102;28;20627;-69
2023/07/19 00:13:39;;;;;;;6.72;6.53;;;20.60;99.90;;;;;;5024585;28;20213;-65
2023/07/19 00:16:08;;;;;;;6.85;6.65;;;20.50;99.90;;;;;;5022900;28;20204;-66
2023/07/19 00:18:35;;;;;;;7.15;6.80;;;20.40;99.90;;;;;;5021790;28;20585;-67
2023/07/19 00:21:01;;;;;;;6.70;6.50;;;20.40;99.90;;;;;;5022212;28;20308;-67
2023/07/19 00:23:28;;;;;;;6.50;6.30;;;20.30;99.90;;;;;;5023579;28;20195;-66
2023/07/19 00:25:55;;;;;;;6.82;6.63;;;20.30;99.90;;;;;;5024620;28;20205;-65
2023/07/19 00:28:22;;;;;;;6.78;6.57;;;20.30;99.90;;;;;;5022637;28;20201;-67
2023/07/19 00:30:49;;;;;;;6.75;6.53;;;20.20;99.90;;;;;;5023165;28;20776;-68
2023/07/19 00:33:17;;;;;;;6.65;6.45;;;20.30;99.90;;;;;;5023143;28;20226;-66
2023/07/19 00:35:44;;;;;;;6.97;6.70;;;20.20;99.90;;;;;;5032428;28;20207;-66
2023/07/19 00:38:10;;;;;;;6.82;6.63;;;20.20;99.90;;;;;;5033950;28;20295;-65
2023/07/19 00:40:37;;;;;;;7.07;6.78;;;20.20;99.90;;;;;;5033054;28;20231;-67
2023/07/19 00:43:09;;;;;;;6.97;6.68;;;20.10;99.90;;;;;;5035431;28;20686;-67
2023/07/19 00:45:36;;;;;;;6.55;6.35;;;20.10;99.90;;;;;;5039460;28;20219;-66
2023/07/19 00:48:03;;;;;;;6.93;6.63;;;20.00;99.90;;;;;;5037294;28;20207;-66
2023/07/19 00:50:31;;;;;;;6.88;6.68;;;20.00;99.90;;;;;;5032788;28;20214;-68
2023/07/19 00:52:58;;;;;;;6.65;6.45;;;20.00;99.90;;;;;;5034151;22;20793;-65
2023/07/19 00:55:25;;;;;;;6.68;6.47;;;19.90;99.90;;;;;;5017409;28;20210;-65
2023/07/19 00:57:52;;;;;;;6.78;6.57;;;19.90;99.90;;;;;;5012965;28;20216;-65
2023/07/19 01:00:20;;;;;;;6.57;6.38;;;19.90;99.90;;;;;;5011559;28;20211;-65
2023/07/19 01:02:46;;;;;;;6.72;6.53;;;19.80;99.90;;;;;;5011879;28;20225;-65
2023/07/19 01:05:17;;;;;;;6.47;6.28;;;19.90;99.90;;;;;;5011905;28;20723;-65
2023/07/19 01:07:45;;;;;;;7.20;6.90;;;19.90;99.90;;;;;;5007652;28;20205;-65
2023/07/19 01:10:13;;;;;;;6.70;6.50;;;19.90;99.90;;;;;;5011197;28;20588;-65
2023/07/19 01:12:39;;;;;;;7.10;6.87;;;19.90;99.90;;;;;;5011977;28;20229;-65
2023/07/19 01:15:09;;;;;;;8.77;8.43;;;19.80;99.90;;;;;;5011930;28;20300;-65
2023/07/19 01:17:36;;;;;;;6.50;6.30;;;19.80;99.90;;;;;;5011929;28;20691;-65
2023/07/19 01:20:06;;;;;;;6.75;6.55;;;19.80;99.90;;;;;;5010709;28;20210;-65
2023/07/19 01:22:34;;;;;;;7.13;6.82;;;19.80;99.90;;;;;;5011041;28;20228;-64
2023/07/19 01:25:01;;;;;;;6.40;6.20;;;19.70;99.90;;;;;;5012059;28;20205;-65
2023/07/19 01:27:28;;;;;;;6.47;6.20;;;19.70;99.90;;;;;;5011212;28;20211;-66
2023/07/19 01:29:55;;;;;;;6.72;6.53;;;19.70;99.90;;;;;;5008193;28;20209;-65
2023/07/19 01:32:22;;;;;;;6.28;6.07;;;19.70;99.90;;;;;;5011522;28;20232;-66
2023/07/19 01:34:48;;;;;;;6.55;6.35;;;19.60;99.90;;;;;;5011424;28;20235;-65
2023/07/19 01:37:15;;;;;;;6.90;6.60;;;19.60;99.90;;;;;;5011522;28;20213;-66
2023/07/19 01:39:44;;;;;;;8.15;7.85;;;19.50;99.90;;;;;;5010680;28;20276;-66
2023/07/19 01:42:11;;;;;;;6.80;6.50;;;19.50;99.90;;;;;;5011372;28;20765;-66
2023/07/19 01:44:38;;;;;;;6.68;6.47;;;19.50;99.90;;;;;;5011703;28;20220;-66
2023/07/19 01:47:05;;;;;;;8.75;8.45;;;19.40;99.90;;;;;;5011788;28;20305;-65
2023/07/19 01:49:31;;;;;;;7.35;7.05;;;19.40;99.90;;;;;;5011164;28;20209;-66
2023/07/19 01:51:58;;;;;;;6.50;6.30;;;19.30;99.90;;;;;;5011765;28;20319;-65
2023/07/19 01:54:25;;;;;;;6.53;6.32;;;19.20;99.90;;;;;;5011113;28;20267;-64
2023/07/19 01:56:53;;;;;;;6.10;5.90;;;19.20;99.90;;;;;;5011681;28;20217;-65
2023/07/19 01:59:20;;;;;;;6.50;6.30;;;19.10;99.90;;;;;;5012245;28;20276;-65
2023/07/19 02:01:47;;;;;;;6.55;6.32;;;19.10;99.90;;;;;;5012494;28;20225;-65
2023/07/19 02:04:14;;;;;;;6.15;5.95;;;19.00;99.90;;;;;;5014917;28;20201;-64
2023/07/19 02:06:41;;;;;;;6.70;6.40;;;19.00;99.90;;;;;;5012314;28;20335;-64
2023/07/19 02:09:07;;;;;;;6.38;6.18;;;19.10;99.90;;;;;;5011449;28;20213;-64
2023/07/19 02:11:35;;;;;;;6.32;6.13;;;19.00;99.90;;;;;;5011928;28;20235;-64
2023/07/19 02:14:04;;;;;;;6.50;6.30;;;18.90;99.90;;;;;;5011102;28;20221;-66
2023/07/19 02:16:31;;;;;;;6.00;5.80;;;18.90;99.90;;;;;;5010934;28;20304;-66
2023/07/19 02:18:58;;;;;;;7.78;7.50;;;18.90;99.90;;;;;;5010252;28;20684;-66
2023/07/19 02:21:25;;;;;;;6.50;6.30;;;18.80;99.90;;;;;;5010221;28;20317;-66
2023/07/19 02:23:52;;;;;;;6.15;5.95;;;18.90;99.90;;;;;;5010907;28;20215;-66
2023/07/19 02:26:19;;;;;;;6.40;6.20;;;19.00;99.90;;;;;;5010211;28;20575;-65
2023/07/19 02:28:46;;;;;;;7.07;6.78;;;19.00;99.90;;;;;;5010618;28;20278;-66
2023/07/19 02:31:14;;;;;;;6.75;6.50;;;18.90;99.90;;;;;;5009682;28;20279;-66
2023/07/19 02:33:41;;;;;;;6.20;6.00;;;18.80;99.90;;;;;;5009955;28;20225;-64
2023/07/19 02:36:09;;;;;;;9.25;8.82;;;18.80;99.90;;;;;;5008498;28;20215;-65
2023/07/19 02:38:36;;;;;;;6.78;6.47;;;18.80;99.90;;;;;;5009842;28;20674;-66
2023/07/19 02:41:03;;;;;;;6.05;5.85;;;18.70;99.90;;;;;;5009290;28;20215;-64
2023/07/19 02:43:30;;;;;;;9.60;9.20;;;18.80;99.90;;;;;;5010664;28;20742;-66
2023/07/19 02:45:57;;;;;;;6.45;6.15;;;18.80;99.90;;;;;;5010637;28;20220;-64
2023/07/19 02:48:25;;;;;;;5.90;5.70;;;18.70;99.90;;;;;;5010666;28;20215;-65
2023/07/19 02:50:52;;;;;;;6.15;5.95;;;18.60;99.90;;;;;;5009369;28;20211;-64
2023/07/19 02:53:19;;;;;;;5.72;5.53;;;18.60;99.90;;;;;;5010166;28;20598;-65
2023/07/19 02:55:46;;;;;;;5.85;5.65;;;18.60;99.90;;;;;;5009942;28;20215;-65
2023/07/19 02:58:13;;;;;;;6.03;5.82;;;18.60;99.90;;;;;;5010759;28;20567;-65
2023/07/19 03:00:40;;;;;;;6.03;5.82;;;18.60;99.90;;;;;;5009271;28;20211;-64
2023/07/19 03:03:07;;;;;;;6.05;5.85;;;18.70;99.90;;;;;;5010219;28;20458;-65
2023/07/19 03:05:40;;;;;;;5.90;5.70;;;18.80;99.90;;;;;;5010051;28;20263;-65
2023/07/19 03:08:07;;;;;;;6.47;6.18;;;18.70;99.90;;;;;;5010249;28;20212;-64
2023/07/19 03:10:33;;;;;;;6.20;6.00;;;18.70;99.90;;;;;;5009393;28;20211;-64
2023/07/19 03:13:00;;;;;;;6.93;6.70;;;18.70;99.90;;;;;;5010202;28;20261;-64
2023/07/19 03:15:32;;;;;;;7.25;7.05;;;18.70;99.90;;;;;;5021479;28;20216;-65
2023/07/19 03:17:59;;;;;;;5.95;5.75;;;18.70;99.90;;;;;;5014503;28;20202;-64
2023/07/19 03:20:27;;;;;;;6.40;6.20;;;18.70;99.90;;;;;;5008988;28;20229;-64
2023/07/19 03:22:56;;;;;;;6.10;5.90;;;18.60;99.90;;;;;;5009608;28;20236;-64
2023/07/19 03:25:23;;;;;;;5.97;5.78;;;18.50;99.90;;;;;;5010016;28;20201;-64
2023/07/19 03:27:50;;;;;;;5.97;5.78;;;18.50;99.90;;;;;;5009887;28;20205;-66
2023/07/19 03:30:17;;;;;;;5.65;5.45;;;18.40;99.90;;;;;;5010678;28;20213;-65
2023/07/19 03:32:44;;;;;;;7.10;6.80;;;18.50;99.90;;;;;;5009386;28;20225;-65
2023/07/19 03:35:11;;;;;;;5.85;5.65;;;18.50;99.90;;;;;;5009941;28;20312;-66
2023/07/19 03:37:38;;;;;;;6.32;6.13;;;18.50;99.90;;;;;;5009355;28;20214;-65
2023/07/19 03:40:08;;;;;;;6.03;5.82;;;18.50;99.90;;;;;;5009557;28;20216;-63
2023/07/19 03:42:34;;;;;;;6.82;6.53;;;18.60;99.90;;;;;;5009870;28;20260;-66
2023/07/19 03:45:01;;;;;;;6.00;5.80;;;18.60;99.90;;;;;;5009618;28;20205;-66
2023/07/19 03:47:28;;;;;;;5.95;5.70;;;18.50;99.90;;;;;;5009841;28;20209;-65
2023/07/19 03:49:55;;;;;;;6.20;5.90;;;18.60;99.90;;;;;;5009424;28;20763;-66
2023/07/19 03:52:22;;;;;;;6.38;6.18;;;18.50;99.90;;;;;;5013068;28;20321;-63
2023/07/19 03:54:50;;;;;;;5.90;5.70;;;18.60;99.90;;;;;;5017652;28;20292;-66
2023/07/19 03:57:18;;;;;;;6.10;5.90;;;18.50;99.90;;;;;;5028364;28;20197;-66
2023/07/19 03:59:45;;;;;;;6.10;5.80;;;18.60;99.90;;;;;;5019193;28;20217;-64
2023/07/19 04:02:12;;;;;;;6.00;5.80;;;18.60;99.90;;;;;;5023000;28;20293;-66
2023/07/19 04:04:39;;;;;;;6.13;5.93;;;18.60;99.90;;;;;;5018559;28;20205;-66
2023/07/19 04:07:06;;;;;;;6.20;6.00;;;18.70;99.90;;;;;;5014846;28;20640;-66
2023/07/19 04:09:33;;;;;;;6.03;5.80;;;18.70;99.90;;;;;;5013563;28;20209;-66
2023/07/19 04:12:00;;;;;;;5.90;5.70;;;18.70;99.90;;;;;;5013725;28;20321;-63
2023/07/19 04:14:28;;;;;;;6.20;6.00;;;18.70;99.90;;;;;;5013916;28;20225;-65
2023/07/19 04:16:55;;;;;;;6.05;5.85;;;18.70;99.90;;;;;;5014387;28;20213;-65
2023/07/19 04:19:22;;;;;;;6.43;6.13;;;18.70;99.90;;;;;;5000220;28;20213;-64
2023/07/19 04:21:48;;;;;;;6.67;6.47;;;18.60;99.90;;;;;;5013235;28;20239;-66
2023/07/19 04:24:15;;;;;;;7.50;7.22;;;18.60;99.90;;;;;;5013191;28;20681;-65
2023/07/19 04:26:42;;;;;;;7.07;6.78;;;18.60;99.90;;;;;;5012294;28;20205;-65
2023/07/19 04:29:09;;;;;;;6.25;6.05;;;18.50;99.90;;;;;;5011981;28;20220;-64
2023/07/19 04:31:37;;;;;;;5.80;5.60;;;18.50;99.90;;;;;;5012587;28;20240;-64
2023/07/19 04:34:04;;;;;;;5.90;5.70;;;18.50;99.90;;;;;;5012688;28;20564;-65
2023/07/19 04:36:31;;;;;;;6.43;6.22;;;18.50;99.90;;;;;;5014318;28;20206;-62
2023/07/19 04:38:58;;;;;;;6.15;5.95;;;18.80;99.90;;;;;;5013743;28;20212;-58
2023/07/19 04:41:24;;;;;;;6.50;6.28;;;19.20;99.90;;;;;;5013325;28;20325;-59
2023/07/19 04:43:51;;;;;;;6.57;6.30;;;19.60;99.90;;;;;;5013621;28;20699;-59
2023/07/19 04:46:21;;;;;;;7.05;6.78;;;19.80;99.90;;;;;;5013908;28;20209;-59
2023/07/19 04:48:49;;;;;;;6.72;6.53;;;19.90;99.90;;;;;;5012641;28;20201;-59
2023/07/19 04:51:16;;;;;;;6.88;6.68;;;20.10;99.90;;;;;;5013832;28;20222;-58
2023/07/19 04:53:42;;;;;;;6.93;6.73;;;20.30;99.90;;;;;;5014255;28;20205;-60
2023/07/19 04:56:09;;;;;;;8.40;8.10;;;20.30;99.90;;;;;;5013802;28;20209;-60
2023/07/19 04:58:36;;;;;;;11.43;10.93;;;20.60;99.90;;;;;;5013019;28;20615;-59
2023/07/19 05:01:05;;;;;;;9.52;9.10;;;20.70;99.90;;;;;;5012248;28;20212;-59
2023/07/19 05:03:32;;;;;;;9.07;8.68;;;20.70;99.90;;;;;;5011913;28;20696;-61
2023/07/19 05:06:00;;;;;;;7.95;7.65;;;20.70;99.90;;;;;;5011746;28;20214;-61
2023/07/19 05:08:27;;;;;;;8.20;7.90;;;20.80;99.90;;;;;;5007687;28;20205;-61
2023/07/19 05:10:54;;;;;;;7.50;7.20;;;20.80;99.90;;;;;;5010706;28;20212;-59
2023/07/19 05:13:20;;;;;;;7.60;7.30;;;20.80;99.90;;;;;;5011574;28;20208;-62
2023/07/19 05:15:47;;;;;;;7.32;7.03;;;20.90;99.90;;;;;;5011492;28;20701;-60
2023/07/19 05:18:14;;;;;;;7.70;7.40;;;20.90;99.90;;;;;;5011883;28;20201;-60
2023/07/19 05:20:41;;;;;;;7.10;6.90;;;21.00;99.90;;;;;;5011092;28;20198;-60
2023/07/19 05:23:10;;;;;;;7.30;7.00;;;21.20;99.90;;;;;;5011861;28;20251;-59
2023/07/19 05:25:37;;;;;;;7.15;6.95;;;21.30;99.90;;;;;;5009062;28;20204;-62
2023/07/19 05:28:04;;;;;;;7.10;6.90;;;21.40;99.90;;;;;;5010837;28;20202;-61
2023/07/19 05:30:31;;;;;;;7.80;7.47;;;21.60;99.90;;;;;;5010515;28;20202;-60
2023/07/19 05:32:57;;;;;;;7.47;7.18;;;21.60;99.90;;;;;;5009999;28;20236;-63
2023/07/19 05:35:24;;;;;;;7.53;7.22;;;21.70;99.90;;;;;;5010400;28;20221;-67
2023/07/19 05:37:51;;;;;;;7.40;7.18;;;21.50;99.90;;;;;;5009704;28;20209;-67
2023/07/19 05:40:19;;;;;;;7.47;7.20;;;21.30;99.90;;;;;;5010551;28;20287;-65
2023/07/19 05:42:46;;;;;;;8.40;8.10;;;21.20;99.90;;;;;;5017310;28;20308;-67
2023/07/19 05:45:13;;;;;;;7.70;7.40;;;21.20;99.90;;;;;;5017551;28;20283;-66
2023/07/19 05:47:40;;;;;;;7.53;7.22;;;21.20;99.90;;;;;;5018839;28;20220;-61
2023/07/19 05:50:08;;;;;;;7.85;7.55;;;21.20;99.90;;;;;;5011589;28;20213;-65
2023/07/19 05:52:34;;;;;;;8.02;7.72;;;21.30;99.90;;;;;;5008851;28;20228;-65
2023/07/19 05:55:01;;;;;;;7.38;7.07;;;21.40;99.90;;;;;;5009967;28;20209;-67
2023/07/19 05:57:30;;;;;;;7.15;6.85;;;21.40;99.90;;;;;;5011977;28;20212;-66
2023/07/19 05:59:58;;;;;;;7.90;7.60;;;21.60;99.90;;;;;;5007824;28;20217;-67
2023/07/19 06:02:25;;;;;;;7.82;7.53;;;21.70;99.90;;;;;;5005336;28;20587;-67
2023/07/19 06:04:52;;;;;;;7.90;7.60;;;21.90;99.90;;;;;;5006097;28;20201;-64
2023/07/19 06:07:19;;;;;;;8.15;7.85;;;22.00;99.90;;;;;;5009236;28;20233;-66
2023/07/19 06:09:46;;;;;;;8.40;8.10;;;22.00;99.90;;;;;;5005190;28;20280;-65
2023/07/19 06:12:12;;;;;;;7.68;7.38;;;22.30;99.90;;;;;;5004122;28;20213;-65
2023/07/19 06:14:40;;;;;;;7.50;7.30;;;22.30;99.90;;;;;;5007873;28;20224;-66
2023/07/19 06:17:07;;;;;;;7.80;7.50;;;22.40;99.90;;;;;;5009936;28;20211;-66
2023/07/19 06:19:34;;;;;;;7.32;7.03;;;22.40;99.90;;;;;;5009912;28;20924;-65
2023/07/19 06:22:01;;;;;;;7.63;7.32;;;22.40;99.90;;;;;;5010634;28;20233;-67
2023/07/19 06:24:28;;;;;;;7.60;7.30;;;22.60;99.90;;;;;;5010340;28;20205;-65
2023/07/19 06:26:55;;;;;;;7.65;7.35;;;22.80;99.90;;;;;;5010719;28;20307;-68
2023/07/19 06:29:22;;;;;;;8.10;7.80;;;22.80;99.90;;;;;;5009503;28;20209;-65
2023/07/19 06:31:51;;;;;;;7.78;7.47;;;23.00;99.90;;;;;;5010332;28;20217;-66
2023/07/19 06:34:17;;;;;;;7.43;7.13;;;23.20;99.90;;;;;;5010585;28;20213;-65
2023/07/19 06:36:44;;;;;;;7.45;7.20;;;23.40;99.90;;;;;;5009786;28;20205;-64
2023/07/19 06:39:11;;;;;;;8.30;8.00;;;23.50;99.90;;;;;;5010806;28;20292;-66
2023/07/19 06:41:38;;;;;;;7.60;7.30;;;23.60;99.90;;;;;;5011256;28;20757;-65
2023/07/19 06:44:05;;;;;;;7.00;6.80;;;23.60;99.90;;;;;;5011475;28;20205;-65
2023/07/19 06:46:32;;;;;;;7.03;6.82;;;23.70;99.90;;;;;;5011151;28;20216;-67
2023/07/19 06:49:00;;;;;;;7.38;7.07;;;23.80;99.90;;;;;;5010857;28;20308;-67
2023/07/19 06:51:28;;;;;;;7.90;7.60;;;23.80;99.90;;;;;;5034048;22;20225;-67
2023/07/19 06:53:55;;;;;;;7.20;6.97;;;23.90;99.90;;;;;;4996109;28;20232;-66
2023/07/19 06:56:21;;;;;;;7.75;7.47;;;24.10;99.90;;;;;;4991077;28;20232;-66
2023/07/19 06:58:48;;;;;;;7.00;6.80;;;24.20;99.90;;;;;;4990881;28;20523;-65
2023/07/19 07:01:15;;;;;;;7.68;7.38;;;24.30;99.90;;;;;;4990188;28;20640;-67
2023/07/19 07:03:42;;;;;;;7.70;7.40;;;24.60;99.90;;;;;;4992714;28;20213;-64
2023/07/19 07:06:10;;;;;;;7.65;7.35;;;24.90;99.90;;;;;;4991701;28;20220;-65
2023/07/19 07:08:37;;;;;;;7.57;7.28;;;25.30;99.90;;;;;;4991101;28;20218;-66
2023/07/19 07:11:04;;;;;;;7.35;7.13;;;25.50;99.90;;;;;;4989945;28;20506;-65
2023/07/19 07:13:31;;;;;;;7.35;7.05;;;25.80;99.90;;;;;;4991275;28;20510;-66
2023/07/19 07:15:59;;;;;;;7.18;6.88;;;25.80;99.90;;;;;;4992603;28;20313;-66
2023/07/19 07:18:26;;;;;;;7.70;7.40;;;26.00;99.90;;;;;;4994120;28;20213;-66
2023/07/19 07:20:53;;;;;;;7.38;7.07;;;26.00;99.90;;;;;;4991997;28;20268;-65
2023/07/19 07:23:21;;;;;;;8.35;8.05;;;26.10;99.90;;;;;;4993204;28;20289;-64
2023/07/19 07:25:53;;;;;;;9.90;9.60;;;26.30;99.90;;;;;;4994034;28;20309;-64
2023/07/19 07:28:20;;;;;;;8.05;7.75;;;26.30;99.90;;;;;;4996146;28;20202;-66
2023/07/19 07:30:47;;;;;;;7.90;7.60;;;26.40;99.90;;;;;;4995075;28;20210;-67
2023/07/19 07:33:13;;;;;;;11.75;11.35;;;26.50;99.90;;;;;;4994636;28;20321;-66
2023/07/19 07:35:40;;;;;;;8.57;8.27;;;26.60;99.90;;;;;;4998391;28;20321;-66
2023/07/19 07:38:08;;;;;;;8.57;8.27;;;26.60;99.90;;;;;;4994862;28;20210;-65
2023/07/19 07:40:36;;;;;;;8.90;8.50;;;26.70;99.90;;;;;;4993925;28;20202;-64
2023/07/19 07:43:03;;;;;;;10.80;10.40;;;26.80;99.90;;;;;;4994046;28;20233;-65
2023/07/19 07:45:30;;;;;;;8.35;8.05;;;26.90;99.90;;;;;;4993670;28;20213;-67
2023/07/19 07:47:56;;;;;;;8.68;8.32;;;27.00;99.90;;;;;;4993949;28;20202;-65
2023/07/19 07:50:25;;;;;;;9.30;9.00;;;27.20;99.90;;;;;;4992171;28;20202;-66
2023/07/19 07:52:52;;;;;;;8.70;8.40;;;27.30;99.90;;;;;;4994816;28;20598;-67
2023/07/19 07:55:19;;;;;;;10.30;9.90;;;27.40;99.90;;;;;;4994749;28;20229;-65
2023/07/19 07:57:47;;;;;;;9.38;9.02;;;27.50;99.90;;;;;;4994860;28;20210;-66
2023/07/19 08:00:15;;;;;;;9.00;8.70;;;27.40;99.90;;;;;;4994116;28;20332;-65
2023/07/19 08:02:42;;;;;;;8.70;8.40;;;27.50;99.90;;;;;;4993989;28;20289;-65
2023/07/19 08:05:09;;;;;;;9.10;8.80;;;27.50;99.90;;;;;;4994649;28;20301;-65
2023/07/19 08:07:36;;;;;;;9.18;8.82;;;27.60;99.90;;;;;;4994949;28;20301;-66
2023/07/19 08:10:03;;;;;;;8.95;8.65;;;27.50;99.90;;;;;;4992625;28;20621;-65
2023/07/19 08:12:30;;;;;;;9.57;9.25;;;27.50;99.90;;;;;;4992342;28;20237;-61
2023/07/19 08:14:58;;;;;;;8.82;8.52;;;27.60;99.90;;;;;;4992496;28;20206;-66
2023/07/19 08:17:26;;;;;;;8.25;7.95;;;27.70;99.90;;;;;;4993591;28;20220;-65
2023/07/19 08:19:53;;;;;;;8.20;7.90;;;27.90;99.90;;;;;;4993011;28;20647;-67
2023/07/19 08:22:28;;;;;;;10.98;10.57;;;27.90;99.90;;;;;;4993122;28;20230;-67
2023/07/19 08:24:55;;;;;;;9.13;8.82;;;28.00;99.90;;;;;;4999689;28;20545;-66
2023/07/19 08:27:22;;;;;;;8.05;7.75;;;28.10;99.90;;;;;;4996920;28;20743;-66
2023/07/19 08:29:49;;;;;;;11.55;11.10;;;28.10;99.90;;;;;;4999247;28;20210;-64
2023/07/19 08:32:17;;;;;;;11.32;10.93;;;28.00;99.90;;;;;;5000289;28;20288;-67
2023/07/19 08:34:45;;;;;;;8.82;8.52;;;28.00;99.90;;;;;;4993398;28;20202;-66
2023/07/19 08:37:12;;;;;;;8.13;7.82;;;28.00;99.90;;;;;;4992482;28;20256;-66
2023/07/19 08:39:38;;;;;;;9.32;9.02;;;28.20;99.90;;;;;;4992642;28;20213;-66
2023/07/19 08:42:06;;;;;;;8.65;8.35;;;28.40;99.90;;;;;;4993389;28;20231;-67
2023/07/19 08:44:33;;;;;;;9.10;8.80;;;28.50;99.90;;;;;;4993285;28;20250;-66
2023/07/19 08:47:02;;;;;;;9.10;8.65;;;28.60;99.90;;;;;;4993365;28;20206;-67
2023/07/19 08:49:30;;;;;;;10.27;9.88;;;28.60;99.90;;;;;;4992381;28;20684;-67
2023/07/19 08:51:58;;;;;;;10.95;10.55;;;28.70;99.90;;;;;;4992761;28;20696;-67
2023/07/19 08:54:25;;;;;;;8.95;8.45;;;28.70;99.90;;;;;;4993072;28;20220;-66
2023/07/19 08:56:52;;;;;;;8.57;8.27;;;28.70;99.90;;;;;;4993549;28;20244;-67
2023/07/19 08:59:19;;;;;;;9.77;9.48;;;28.80;99.90;;;;;;4992672;28;20575;-65
2023/07/19 09:01:45;;;;;;;9.05;8.75;;;29.10;99.90;;;;;;4993715;28;20241;-65
2023/07/19 09:04:12;;;;;;;9.48;9.18;;;29.30;99.90;;;;;;4993761;28;20232;-67
2023/07/19 09:06:41;;;;;;;8.80;8.50;;;29.10;99.90;;;;;;4994435;28;20652;-65
2023/07/19 09:09:10;;;;;;;10.48;10.07;;;29.10;99.90;;;;;;5005264;28;20258;-63
2023/07/19 09:11:37;;;;;;;10.23;9.82;;;29.20;99.90;;;;;;4992875;28;20225;-67
2023/07/19 09:14:03;;;;;;;9.45;9.13;;;29.30;99.90;;;;;;4991759;28;20641;-66
2023/07/19 09:16:32;;;;;;;10.07;9.68;;;29.30;99.90;;;;;;4992285;28;20218;-66
2023/07/19 09:19:00;;;;;;;10.98;10.57;;;29.50;99.90;;;;;;4992168;28;20240;-66
2023/07/19 09:21:35;;;;;;;10.35;9.95;;;29.60;99.90;;;;;;4991355;28;20778;-66
2023/07/19 09:24:06;;;;;;;11.35;10.88;;;29.60;99.90;;;;;;4992229;28;20208;-65
2023/07/19 09:26:48;;;;;;;11.52;11.13;;;29.60;99.90;;;;;;4991482;28;20669;-65
2023/07/19 09:29:15;;;;;;;13.63;13.13;;;29.50;99.90;;;;;;4991155;28;20202;-66
2023/07/19 09:31:53;;;;;;;10.75;10.35;;;29.30;99.90;;;;;;4991444;28;20727;-65
2023/07/19 09:34:21;;;;;;;9.70;9.38;;;29.10;99.90;;;;;;4992289;28;20209;-64
2023/07/19 09:36:49;;;;;;;9.60;9.30;;;29.30;99.90;;;;;;4992511;28;20373;-66
2023/07/19 09:39:17;;;;;;;14.07;13.57;;;29.30;99.90;;;;;;4993972;28;20712;-65
2023/07/19 09:41:45;;;;;;;9.80;9.50;;;29.00;99.90;;;;;;4996403;28;20249;-66
2023/07/19 09:44:15;;;;;;;9.68;9.18;;;29.10;99.90;;;;;;5002327;28;20244;-67
2023/07/19 09:46:43;;;;;;;8.95;8.65;;;29.10;99.90;;;;;;4999694;28;20210;-65
2023/07/19 09:49:10;;;;;;;10.05;9.65;;;29.20;99.90;;;;;;4991667;28;20294;-64
2023/07/19 09:51:40;;;;;;;12.45;11.95;;;29.30;99.90;;;;;;4991889;28;20238;-65
2023/07/19 09:54:09;;;;;;;9.85;9.45;;;29.30;99.90;;;;;;4991182;28;20210;-65
2023/07/19 09:56:38;;;;;;;10.10;9.70;;;29.40;99.90;;;;;;4991338;28;20319;-70
2023/07/19 09:59:07;;;;;;;9.77;9.48;;;29.30;99.90;;;;;;4990453;28;20656;-63
2023/07/19 10:01:35;;;;;;;9.82;9.43;;;29.20;99.90;;;;;;4991202;28;20706;-66
2023/07/19 10:04:02;;;;;;;9.35;9.05;;;29.30;99.90;;;;;;4990910;28;20225;-67
2023/07/19 10:06:32;;;;;;;11.75;11.32;;;29.60;99.90;;;;;;4990920;28;20232;-65
2023/07/19 10:09:31;;;;;;;10.85;10.45;;;29.80;99.90;;;;;;4990901;28;20224;-65
2023/07/19 10:12:01;;;;;;;9.98;9.57;;;30.10;99.90;;;;;;4990808;28;20316;-66
2023/07/19 10:14:29;;;;;;;10.77;10.38;;;30.20;99.90;;;;;;4990111;28;20213;-67
2023/07/19 10:16:59;;;;;;;10.02;9.63;;;30.20;99.90;;;;;;4990458;28;20897;-67
2023/07/19 10:19:27;;;;;;;10.57;10.18;;;30.40;99.90;;;;;;4989724;28;20206;-67
2023/07/19 10:22:04;;;;;;;10.80;10.40;;;30.60;99.90;;;;;;4989670;28;20256;-66
2023/07/19 10:24:32;;;;;;;10.73;10.32;;;30.70;99.90;;;;;;4991338;28;20205;-64
2023/07/19 10:27:05;;;;;;;12.10;11.70;;;30.80;99.90;;;;;;4992684;28;20261;-65
2023/07/19 10:29:42;;;;;;;13.93;13.43;;;30.80;99.90;;;;;;4993148;28;20699;-66
2023/07/19 10:32:09;;;;;;;12.30;11.82;;;30.50;99.90;;;;;;4999957;28;20239;-64
2023/07/19 10:34:37;;;;;;;12.57;12.13;;;30.30;99.90;;;;;;5000493;28;20288;-65
2023/07/19 10:37:05;;;;;;;13.38;12.88;;;30.00;99.90;;;;;;5001141;28;20272;-66
2023/07/19 10:39:32;;;;;;;13.88;13.38;;;29.90;99.90;;;;;;4998397;28;20212;-68
2023/07/19 10:42:00;;;;;;;12.35;11.95;;;29.60;99.90;;;;;;4992576;28;20229;-66
2023/07/19 10:44:28;;;;;;;11.60;11.20;;;29.50;99.90;;;;;;4991212;28;20730;-66
2023/07/19 10:46:55;;;;;;;10.68;10.27;;;29.50;99.90;;;;;;4991099;28;20767;-66
2023/07/19 10:49:23;;;;;;;11.38;10.98;;;29.50;99.90;;;;;;4990658;28;20212;-68
2023/07/19 10:51:54;;;;;;;9.95;9.65;;;29.40;99.90;;;;;;4989977;28;20233;-65
2023/07/19 10:54:21;;;;;;;9.88;9.48;;;29.30;99.90;;;;;;4991753;28;20649;-67
2023/07/19 10:56:49;;;;;;;8.68;8.38;;;29.20;99.90;;;;;;4992428;28;20233;-65
2023/07/19 10:59:16;;;;;;;10.75;10.35;;;29.10;99.90;;;;;;4989407;28;20202;-66
2023/07/19 11:01:45;;;;;;;9.38;9.07;;;29.10;99.90;;;;;;4990123;28;20222;-66
2023/07/19 11:04:13;;;;;;;9.88;9.57;;;29.30;99.90;;;;;;4990848;28;20580;-67
2023/07/19 11:06:54;;;;;;;10.98;10.55;;;29.40;99.90;;;;;;4990978;28;20636;-65
2023/07/19 11:09:22;;;;;;;11.35;10.85;;;29.50;99.90;;;;;;4990268;28;20209;-66
2023/07/19 11:11:50;;;;;;;9.63;9.27;;;29.60;99.90;;;;;;4990751;28;20289;-65
2023/07/19 11:14:30;;;;;;;11.15;10.65;;;29.80;99.90;;;;;;4991059;28;20212;-65
2023/07/19 11:16:58;;;;;;;11.90;11.43;;;29.90;99.90;;;;;;4990504;28;20663;-65
2023/07/19 11:19:36;;;;;;;12.32;11.90;;;30.00;99.90;;;;;;4989759;28;20214;-67
2023/07/19 11:22:03;;;;;;;18.08;17.38;;;30.20;99.90;;;;;;4990161;28;20225;-67
2023/07/19 11:24:38;;;;;;;11.10;10.70;;;30.20;99.90;;;;;;4990586;28;20577;-66
2023/07/19 11:27:06;;;;;;;38.97;37.22;;;30.10;99.90;;;;;;4990925;28;20189;-66
2023/07/19 11:29:34;;;;;;;12.63;12.13;;;30.20;99.90;;;;;;4990968;28;20210;-66
2023/07/19 11:32:16;;;;;;;10.10;9.70;;;30.20;99.90;;;;;;4991696;28;20230;-66
2023/07/19 11:34:51;;;;;;;9.65;9.35;;;30.10;99.90;;;;;;4991528;28;20625;-66
2023/07/19 11:37:19;;;;;;;9.05;8.75;;;30.30;99.90;;;;;;4990895;28;20646;-66
2023/07/19 11:39:48;;;;;;;11.02;10.63;;;30.30;99.90;;;;;;4990110;28;20214;-66
2023/07/19 11:42:15;;;;;;;12.02;11.63;;;30.50;99.90;;;;;;4990154;28;20326;-66
2023/07/19 11:44:45;;;;;;;11.00;10.10;;;30.60;99.90;;;;;;4990695;28;20202;-65
2023/07/19 11:47:14;;;;;;;11.82;11.43;;;30.50;99.90;;;;;;4990317;28;20744;-66
2023/07/19 11:49:41;;;;;;;10.85;10.45;;;30.60;99.90;;;;;;4989518;28;20241;-67
2023/07/19 11:52:09;;;;;;;13.40;12.90;;;30.80;99.90;;;;;;4990300;28;20233;-67
2023/07/19 11:54:36;;;;;;;14.45;13.95;;;30.90;99.90;;;;;;4990653;28;20205;-66
2023/07/19 11:57:04;;;;;;;12.30;11.80;;;31.00;99.90;;;;;;4990749;28;20228;-66
2023/07/19 11:59:30;;;;;;;15.70;15.10;;;30.90;99.90;;;;;;4990235;28;20289;-66
2023/07/19 12:01:59;;;;;;;12.02;11.52;;;30.80;99.90;;;;;;4990852;28;20230;-64
2023/07/19 12:04:29;;;;;;;12.43;12.00;;;30.70;99.90;;;;;;4990336;28;20210;-67
2023/07/19 12:06:56;;;;;;;14.70;14.10;;;30.50;99.90;;;;;;4990515;28;20665;-65
2023/07/19 12:09:23;;;;;;;11.55;11.15;;;30.50;99.90;;;;;;4991148;28;20220;-66
2023/07/19 12:11:50;;;;;;;11.88;11.48;;;30.40;99.90;;;;;;4991807;28;20230;-66
2023/07/19 12:14:17;;;;;;;12.52;12.02;;;30.40;99.90;;;;;;4995886;28;20764;-65
2023/07/19 12:16:44;;;;;;;10.70;10.30;;;30.40;99.90;;;;;;5004191;28;20272;-66
2023/07/19 12:19:11;;;;;;;12.80;12.35;;;30.40;99.90;;;;;;5002959;28;20221;-67
2023/07/19 12:21:41;;;;;;;15.20;14.50;;;30.40;99.90;;;;;;5004404;28;20622;-66
2023/07/19 12:24:08;;;;;;;58.75;55.38;;;30.40;99.90;;;;;;5002189;28;20605;-65
2023/07/19 12:26:36;;;;;;;30.88;29.02;;;30.40;99.90;;;;;;4994686;28;20276;-67
2023/07/19 12:29:03;;;;;;;16.45;15.77;;;30.40;99.90;;;;;;4994133;28;20210;-65
2023/07/19 12:31:29;;;;;;;8.52;8.23;;;30.70;99.90;;;;;;4994263;28;20233;-66
2023/07/19 12:33:57;;;;;;;36.65;34.50;;;30.90;99.90;;;;;;4994356;28;20585;-66
2023/07/19 12:36:24;;;;;;;24.80;23.33;;;31.10;99.90;;;;;;4994501;28;20230;-64
2023/07/19 12:38:53;;;;;;;11.25;10.75;;;30.90;99.90;;;;;;4995166;28;20212;-66
2023/07/19 12:41:20;;;;;;;12.50;12.00;;;30.70;99.90;;;;;;4993744;28;20221;-67
2023/07/19 12:43:47;;;;;;;9.30;8.98;;;30.50;99.90;;;;;;4993972;28;20749;-65
2023/07/19 12:46:14;;;;;;;10.00;9.60;;;30.70;99.90;;;;;;4993836;28;20212;-67